THY6251 LTFM-HAAB
Flight info
| Callsign | THY6251 |
|---|---|
| Flight time | 4h 20m |
| Altitude | 33000 |
| Route | RATVU UT35 AYT UA16 TOMBI DCT DASNI M855 RASDA A16 CVO A727 LXR P751 TOMRU DCT KSL/N0487F340 DCT ALRAP/N0487F350 UT124 AMUDO AMUDO1A |
| Aircraft | B77L/H-SDE1E2E3FGHIJ2J3J4J5M1RWXY/LB1D1 |
Departure
| Time | 2026-05-07 17:14 |
|---|---|
| Airport | İstanbul Airport (LTFM) |
Arrival
| Time | 2026-05-07 21:34 |
|---|---|
| Airport | Addis Ababa Bole International Airport (HAAB) |
| Time | Latitude | Longitude | Altitude | Speed | Heading |
|---|---|---|---|---|---|
| 2026-05-07 16:40 | 41.27573 | 28.72093 | 300 ft | 0 kts | 268° |
| 2026-05-07 17:02 | 41.27574 | 28.72113 | 290 ft | 2 kts | 268° |
| 2026-05-07 17:02 | 41.27575 | 28.72135 | 284 ft | 2 kts | 267° |
| 2026-05-07 17:02 | 41.27576 | 28.72157 | 306 ft | 2 kts | 262° |
| 2026-05-07 17:02 | 41.27578 | 28.72178 | 304 ft | 2 kts | 261° |
| 2026-05-07 17:03 | 41.27582 | 28.72200 | 301 ft | 2 kts | 257° |
| 2026-05-07 17:03 | 41.27586 | 28.72221 | 300 ft | 2 kts | 251° |
| 2026-05-07 17:03 | 41.27592 | 28.72241 | 301 ft | 2 kts | 242° |
| 2026-05-07 17:03 | 41.27601 | 28.72259 | 301 ft | 2 kts | 224° |
| 2026-05-07 17:04 | 41.27614 | 28.72272 | 302 ft | 2 kts | 193° |
| 2026-05-07 17:04 | 41.27624 | 28.72273 | 300 ft | 0 kts | 177° |
| 2026-05-07 17:06 | 41.27620 | 28.72273 | 300 ft | 4 kts | 181° |
| 2026-05-07 17:06 | 41.27527 | 28.72273 | 306 ft | 21 kts | 179° |
| 2026-05-07 17:07 | 41.27382 | 28.72275 | 307 ft | 21 kts | 179° |
| 2026-05-07 17:07 | 41.27238 | 28.72276 | 310 ft | 21 kts | 179° |
| 2026-05-07 17:07 | 41.27093 | 28.72280 | 313 ft | 21 kts | 179° |
| 2026-05-07 17:07 | 41.26948 | 28.72284 | 314 ft | 21 kts | 179° |
| 2026-05-07 17:08 | 41.26805 | 28.72285 | 314 ft | 21 kts | 180° |
| 2026-05-07 17:08 | 41.26708 | 28.72287 | 316 ft | 21 kts | 179° |
| 2026-05-07 17:08 | 41.26574 | 28.72290 | 315 ft | 13 kts | 173° |
| 2026-05-07 17:08 | 41.26550 | 28.72346 | 317 ft | 0 kts | 78° |
| 2026-05-07 17:11 | 41.26556 | 28.72383 | 318 ft | 13 kts | 77° |
| 2026-05-07 17:11 | 41.26589 | 28.72506 | 318 ft | 8 kts | 47° |
| 2026-05-07 17:12 | 41.26635 | 28.72517 | 316 ft | 0 kts | 359° |
| 2026-05-07 17:12 | 41.26640 | 28.72517 | 316 ft | 1 kts | 359° |
| 2026-05-07 17:12 | 41.26642 | 28.72517 | 316 ft | 0 kts | 359° |
| 2026-05-07 17:12 | 41.26648 | 28.72517 | 316 ft | 6 kts | 359° |
| 2026-05-07 17:13 | 41.26823 | 28.72514 | 313 ft | 54 kts | 359° |
| 2026-05-07 17:13 | 41.27423 | 28.72502 | 294 ft | 117 kts | 359° |
| 2026-05-07 17:13 | 41.28412 | 28.72481 | 266 ft | 166 kts | 358° |
| 2026-05-07 17:13 | 41.29659 | 28.72455 | 452 ft | 184 kts | 358° |
| 2026-05-07 17:14 | 41.30935 | 28.72430 | 967 ft | 183 kts | 358° |
| 2026-05-07 17:14 | 41.32216 | 28.72397 | 1433 ft | 187 kts | 356° |
| 2026-05-07 17:14 | 41.33542 | 28.72352 | 1839 ft | 193 kts | 356° |
| 2026-05-07 17:14 | 41.34933 | 28.72335 | 2090 ft | 209 kts | 359° |
| 2026-05-07 17:15 | 41.36420 | 28.72154 | 2235 ft | 222 kts | 334° |
| 2026-05-07 17:15 | 41.37630 | 28.70861 | 2478 ft | 230 kts | 300° |
| 2026-05-07 17:15 | 41.38189 | 28.68873 | 2979 ft | 233 kts | 276° |
| 2026-05-07 17:15 | 41.38240 | 28.66682 | 3507 ft | 241 kts | 269° |
| 2026-05-07 17:16 | 41.38191 | 28.64402 | 3999 ft | 251 kts | 268° |
| 2026-05-07 17:16 | 41.38143 | 28.62044 | 4595 ft | 258 kts | 269° |
| 2026-05-07 17:16 | 41.38084 | 28.59642 | 5230 ft | 260 kts | 264° |
| 2026-05-07 17:16 | 41.37489 | 28.57363 | 5750 ft | 268 kts | 235° |
| 2026-05-07 17:17 | 41.36095 | 28.55720 | 6395 ft | 273 kts | 208° |
| 2026-05-07 17:17 | 41.34267 | 28.55029 | 6999 ft | 277 kts | 184° |
| 2026-05-07 17:17 | 41.32316 | 28.55074 | 7460 ft | 284 kts | 180° |
| 2026-05-07 17:17 | 41.30329 | 28.55143 | 8083 ft | 287 kts | 180° |
| 2026-05-07 17:18 | 41.28331 | 28.55198 | 8748 ft | 288 kts | 180° |
| 2026-05-07 17:18 | 41.26316 | 28.55264 | 9365 ft | 290 kts | 176° |
| 2026-05-07 17:18 | 41.24376 | 28.56047 | 9761 ft | 300 kts | 146° |
| 2026-05-07 17:18 | 41.22826 | 28.57891 | 10228 ft | 302 kts | 135° |
| 2026-05-07 17:19 | 41.21286 | 28.59913 | 10427 ft | 322 kts | 136° |
| 2026-05-07 17:19 | 41.19631 | 28.62053 | 10582 ft | 342 kts | 136° |
| 2026-05-07 17:19 | 41.17869 | 28.64322 | 10778 ft | 363 kts | 136° |
| 2026-05-07 17:19 | 41.16006 | 28.66711 | 11089 ft | 379 kts | 136° |
| 2026-05-07 17:20 | 41.14036 | 28.69098 | 11620 ft | 388 kts | 142° |
| 2026-05-07 17:20 | 41.11788 | 28.71116 | 12364 ft | 392 kts | 151° |
| 2026-05-07 17:20 | 41.09326 | 28.72685 | 13226 ft | 394 kts | 158° |
| 2026-05-07 17:20 | 41.06779 | 28.74077 | 14019 ft | 398 kts | 158° |
| 2026-05-07 17:21 | 41.04208 | 28.75488 | 14672 ft | 403 kts | 158° |
| 2026-05-07 17:21 | 41.01596 | 28.76927 | 15318 ft | 409 kts | 158° |
| 2026-05-07 17:21 | 40.98955 | 28.78386 | 15967 ft | 414 kts | 158° |
| 2026-05-07 17:21 | 40.96284 | 28.79867 | 16630 ft | 419 kts | 158° |
| 2026-05-07 17:22 | 40.93584 | 28.81368 | 17273 ft | 423 kts | 158° |
| 2026-05-07 17:22 | 40.90852 | 28.82888 | 17902 ft | 428 kts | 158° |
| 2026-05-07 17:22 | 40.88089 | 28.84425 | 18516 ft | 433 kts | 158° |
| 2026-05-07 17:22 | 40.85294 | 28.85980 | 19045 ft | 438 kts | 158° |
| 2026-05-07 17:23 | 40.82470 | 28.87550 | 19577 ft | 443 kts | 158° |
| 2026-05-07 17:23 | 40.79618 | 28.89135 | 20105 ft | 447 kts | 158° |
| 2026-05-07 17:23 | 40.76734 | 28.90736 | 20618 ft | 452 kts | 158° |
| 2026-05-07 17:23 | 40.73823 | 28.92350 | 21151 ft | 456 kts | 158° |
| 2026-05-07 17:24 | 40.70885 | 28.93977 | 21658 ft | 460 kts | 158° |
| 2026-05-07 17:24 | 40.67914 | 28.95620 | 22184 ft | 465 kts | 158° |
| 2026-05-07 17:24 | 40.64912 | 28.97280 | 22604 ft | 471 kts | 158° |
| 2026-05-07 17:24 | 40.61870 | 28.98959 | 23059 ft | 477 kts | 158° |
| 2026-05-07 17:25 | 40.58793 | 29.00657 | 23593 ft | 481 kts | 158° |
| 2026-05-07 17:25 | 40.55702 | 29.02361 | 24049 ft | 483 kts | 158° |
| 2026-05-07 17:25 | 40.52591 | 29.04074 | 24090 ft | 487 kts | 158° |
| 2026-05-07 17:25 | 40.49471 | 29.05790 | 24101 ft | 486 kts | 158° |
| 2026-05-07 17:26 | 40.46360 | 29.07500 | 24101 ft | 484 kts | 158° |
| 2026-05-07 17:26 | 40.43257 | 29.09203 | 24100 ft | 483 kts | 158° |
| 2026-05-07 17:26 | 40.40160 | 29.10901 | 24102 ft | 483 kts | 158° |
| 2026-05-07 17:26 | 40.37060 | 29.12600 | 24102 ft | 483 kts | 158° |
| 2026-05-07 17:27 | 40.33963 | 29.14295 | 24103 ft | 483 kts | 158° |
| 2026-05-07 17:27 | 40.30863 | 29.15989 | 24104 ft | 483 kts | 158° |
| 2026-05-07 17:27 | 40.27765 | 29.17681 | 24111 ft | 483 kts | 158° |
| 2026-05-07 17:27 | 40.24653 | 29.19379 | 24385 ft | 487 kts | 158° |
| 2026-05-07 17:28 | 40.21514 | 29.21090 | 24851 ft | 490 kts | 158° |
| 2026-05-07 17:28 | 40.18364 | 29.22805 | 25368 ft | 491 kts | 158° |
| 2026-05-07 17:28 | 40.15243 | 29.24503 | 25818 ft | 494 kts | 158° |
| 2026-05-07 17:28 | 40.12060 | 29.26233 | 26216 ft | 498 kts | 158° |
| 2026-05-07 17:29 | 40.08843 | 29.27979 | 26581 ft | 503 kts | 158° |
| 2026-05-07 17:29 | 40.05602 | 29.29736 | 27026 ft | 506 kts | 158° |
| 2026-05-07 17:29 | 40.02343 | 29.31503 | 27468 ft | 508 kts | 159° |
| 2026-05-07 17:29 | 39.99078 | 29.33271 | 27884 ft | 510 kts | 159° |
| 2026-05-07 17:30 | 39.95786 | 29.35052 | 28273 ft | 514 kts | 159° |
| 2026-05-07 17:30 | 39.92477 | 29.36840 | 28620 ft | 517 kts | 159° |
| 2026-05-07 17:30 | 39.89142 | 29.38643 | 28999 ft | 519 kts | 158° |
| 2026-05-07 17:30 | 39.85806 | 29.40468 | 29382 ft | 521 kts | 158° |
| 2026-05-07 17:31 | 39.82466 | 29.42311 | 29816 ft | 522 kts | 158° |
| 2026-05-07 17:31 | 39.79120 | 29.44159 | 30284 ft | 521 kts | 158° |
| 2026-05-07 17:31 | 39.75790 | 29.45994 | 30743 ft | 519 kts | 158° |
| 2026-05-07 17:31 | 39.72468 | 29.47819 | 31212 ft | 517 kts | 159° |
| 2026-05-07 17:32 | 39.69153 | 29.49635 | 31642 ft | 516 kts | 159° |
| 2026-05-07 17:32 | 39.65850 | 29.51443 | 32078 ft | 515 kts | 159° |
| 2026-05-07 17:32 | 39.62551 | 29.53230 | 32502 ft | 513 kts | 160° |
| 2026-05-07 17:32 | 39.59239 | 29.54934 | 32847 ft | 513 kts | 161° |
| 2026-05-07 17:33 | 39.55893 | 29.56596 | 33062 ft | 516 kts | 161° |
| 2026-05-07 17:33 | 39.52526 | 29.58247 | 33130 ft | 519 kts | 161° |
| 2026-05-07 17:33 | 39.45793 | 29.61559 | 33147 ft | 515 kts | 161° |
| 2026-05-07 17:34 | 39.39131 | 29.64869 | 33154 ft | 512 kts | 161° |
| 2026-05-07 17:34 | 39.32488 | 29.68176 | 33157 ft | 512 kts | 161° |
| 2026-05-07 17:35 | 39.25843 | 29.71476 | 33162 ft | 512 kts | 161° |
| 2026-05-07 17:35 | 39.19187 | 29.74774 | 33164 ft | 512 kts | 161° |
| 2026-05-07 17:36 | 39.12529 | 29.78066 | 33162 ft | 513 kts | 161° |
| 2026-05-07 17:36 | 39.05859 | 29.81357 | 33175 ft | 513 kts | 161° |
| 2026-05-07 17:37 | 38.99186 | 29.84644 | 33175 ft | 515 kts | 161° |
| 2026-05-07 17:37 | 38.92491 | 29.87935 | 33175 ft | 515 kts | 161° |
| 2026-05-07 17:38 | 38.85831 | 29.91182 | 33171 ft | 516 kts | 162° |
| 2026-05-07 17:38 | 38.79103 | 29.94375 | 33185 ft | 516 kts | 162° |
| 2026-05-07 17:39 | 38.72362 | 29.97557 | 33175 ft | 516 kts | 162° |
| 2026-05-07 17:39 | 38.65633 | 30.00741 | 33180 ft | 516 kts | 162° |
| 2026-05-07 17:40 | 38.58898 | 30.03928 | 33174 ft | 515 kts | 162° |
| 2026-05-07 17:40 | 38.52173 | 30.07104 | 33173 ft | 515 kts | 162° |
| 2026-05-07 17:41 | 38.45466 | 30.10264 | 33190 ft | 513 kts | 162° |
| 2026-05-07 17:41 | 38.38759 | 30.13418 | 33176 ft | 514 kts | 162° |
| 2026-05-07 17:42 | 38.32040 | 30.16562 | 33195 ft | 515 kts | 162° |
| 2026-05-07 17:42 | 38.25291 | 30.19625 | 33196 ft | 516 kts | 162° |
| 2026-05-07 17:43 | 38.18531 | 30.22716 | 33190 ft | 517 kts | 162° |
| 2026-05-07 17:43 | 38.11770 | 30.25833 | 33196 ft | 517 kts | 162° |
| 2026-05-07 17:44 | 38.05001 | 30.28942 | 33184 ft | 517 kts | 162° |
| 2026-05-07 17:44 | 37.98285 | 30.32009 | 33188 ft | 516 kts | 162° |
| 2026-05-07 17:45 | 37.91523 | 30.35067 | 33180 ft | 515 kts | 162° |
| 2026-05-07 17:45 | 37.84778 | 30.38109 | 33183 ft | 514 kts | 162° |
| 2026-05-07 17:46 | 37.78041 | 30.41144 | 33177 ft | 514 kts | 162° |
| 2026-05-07 17:46 | 37.71311 | 30.44174 | 33184 ft | 513 kts | 162° |
| 2026-05-07 17:47 | 37.64575 | 30.47200 | 33168 ft | 514 kts | 162° |
| 2026-05-07 17:47 | 37.57835 | 30.50222 | 33157 ft | 514 kts | 162° |
| 2026-05-07 17:48 | 37.51096 | 30.53238 | 33174 ft | 514 kts | 162° |
| 2026-05-07 17:48 | 37.44345 | 30.56254 | 33166 ft | 515 kts | 162° |
| 2026-05-07 17:49 | 37.37597 | 30.59262 | 33165 ft | 515 kts | 162° |
| 2026-05-07 17:49 | 37.30885 | 30.62249 | 33156 ft | 515 kts | 162° |
| 2026-05-07 17:50 | 37.24135 | 30.65247 | 33146 ft | 515 kts | 162° |
| 2026-05-07 17:50 | 37.17379 | 30.68242 | 33133 ft | 515 kts | 162° |
| 2026-05-07 17:51 | 37.10629 | 30.71228 | 33105 ft | 514 kts | 162° |
| 2026-05-07 17:51 | 37.03887 | 30.74207 | 33093 ft | 514 kts | 162° |
| 2026-05-07 17:52 | 36.97154 | 30.77173 | 33104 ft | 513 kts | 163° |
| 2026-05-07 17:52 | 36.90256 | 30.79261 | 33104 ft | 509 kts | 174° |
| 2026-05-07 17:53 | 36.83234 | 30.79822 | 33102 ft | 504 kts | 182° |
| 2026-05-07 17:53 | 36.76212 | 30.79989 | 33107 ft | 505 kts | 182° |
| 2026-05-07 17:54 | 36.69183 | 30.80210 | 33105 ft | 505 kts | 181° |
| 2026-05-07 17:54 | 36.62148 | 30.80464 | 33105 ft | 506 kts | 181° |
| 2026-05-07 17:55 | 36.55115 | 30.80719 | 33111 ft | 505 kts | 182° |
| 2026-05-07 17:55 | 36.48088 | 30.80969 | 33106 ft | 505 kts | 182° |
| 2026-05-07 17:56 | 36.41068 | 30.81218 | 33104 ft | 505 kts | 182° |
| 2026-05-07 17:56 | 36.35231 | 30.81411 | 33103 ft | 505 kts | 182° |
| 2026-05-07 17:57 | 36.28211 | 30.81631 | 33112 ft | 504 kts | 182° |
| 2026-05-07 17:57 | 36.20057 | 30.81890 | 33100 ft | 504 kts | 182° |
| 2026-05-07 17:58 | 36.13052 | 30.82114 | 33119 ft | 503 kts | 182° |
| 2026-05-07 17:58 | 36.07183 | 30.82302 | 33121 ft | 503 kts | 182° |
| 2026-05-07 17:59 | 36.00178 | 30.82580 | 33113 ft | 504 kts | 180° |
| 2026-05-07 17:59 | 35.93170 | 30.83035 | 33125 ft | 504 kts | 180° |
| 2026-05-07 18:00 | 35.86162 | 30.83501 | 33131 ft | 504 kts | 180° |
| 2026-05-07 18:00 | 35.79151 | 30.83936 | 33121 ft | 505 kts | 180° |
| 2026-05-07 18:01 | 35.72138 | 30.84362 | 33131 ft | 505 kts | 180° |
| 2026-05-07 18:01 | 35.65121 | 30.84791 | 33128 ft | 505 kts | 180° |
| 2026-05-07 18:02 | 35.54589 | 30.85298 | 33128 ft | 505 kts | 182° |
| 2026-05-07 18:03 | 35.47612 | 30.85499 | 33143 ft | 505 kts | 182° |
| 2026-05-07 18:03 | 35.40586 | 30.85720 | 33142 ft | 505 kts | 182° |
| 2026-05-07 18:04 | 35.33555 | 30.85960 | 33134 ft | 506 kts | 182° |
| 2026-05-07 18:04 | 35.26518 | 30.86203 | 33155 ft | 506 kts | 182° |
| 2026-05-07 18:05 | 35.19478 | 30.86443 | 33145 ft | 506 kts | 182° |
| 2026-05-07 18:05 | 35.12432 | 30.86677 | 33124 ft | 507 kts | 182° |
| 2026-05-07 18:06 | 35.05380 | 30.86902 | 33151 ft | 507 kts | 182° |
| 2026-05-07 18:06 | 34.98322 | 30.87127 | 33143 ft | 508 kts | 182° |
| 2026-05-07 18:07 | 34.91252 | 30.87354 | 33131 ft | 508 kts | 182° |
| 2026-05-07 18:07 | 34.84179 | 30.87581 | 33146 ft | 509 kts | 182° |
| 2026-05-07 18:08 | 34.77091 | 30.87808 | 33143 ft | 510 kts | 182° |
| 2026-05-07 18:08 | 34.70002 | 30.88035 | 33148 ft | 510 kts | 182° |
| 2026-05-07 18:09 | 34.62894 | 30.88262 | 33141 ft | 511 kts | 182° |
| 2026-05-07 18:09 | 34.55825 | 30.88557 | 33146 ft | 513 kts | 181° |
| 2026-05-07 18:10 | 34.48693 | 30.88947 | 33142 ft | 513 kts | 181° |
| 2026-05-07 18:10 | 34.41551 | 30.89326 | 33138 ft | 514 kts | 181° |
| 2026-05-07 18:11 | 34.34399 | 30.89689 | 33149 ft | 515 kts | 181° |
| 2026-05-07 18:11 | 34.27234 | 30.90051 | 33145 ft | 516 kts | 181° |
| 2026-05-07 18:12 | 34.20058 | 30.90424 | 33144 ft | 516 kts | 181° |
| 2026-05-07 18:12 | 34.12880 | 30.90826 | 33145 ft | 516 kts | 181° |
| 2026-05-07 18:13 | 34.05703 | 30.91227 | 33142 ft | 516 kts | 181° |
| 2026-05-07 18:13 | 33.98533 | 30.91622 | 33134 ft | 516 kts | 181° |
| 2026-05-07 18:14 | 33.91363 | 30.91987 | 33146 ft | 516 kts | 182° |
| 2026-05-07 18:14 | 33.84189 | 30.92248 | 33146 ft | 516 kts | 182° |
| 2026-05-07 18:15 | 33.77006 | 30.92496 | 33127 ft | 517 kts | 182° |
| 2026-05-07 18:15 | 33.69812 | 30.92759 | 33148 ft | 518 kts | 182° |
| 2026-05-07 18:16 | 33.62602 | 30.93031 | 33146 ft | 519 kts | 182° |
| 2026-05-07 18:16 | 33.55380 | 30.93304 | 33129 ft | 520 kts | 182° |
| 2026-05-07 18:17 | 33.48193 | 30.93574 | 33143 ft | 520 kts | 182° |
| 2026-05-07 18:17 | 33.40950 | 30.93845 | 33146 ft | 521 kts | 182° |
| 2026-05-07 18:18 | 33.33688 | 30.94117 | 33147 ft | 522 kts | 182° |
| 2026-05-07 18:18 | 33.26430 | 30.94388 | 33144 ft | 522 kts | 182° |
| 2026-05-07 18:19 | 33.19165 | 30.94659 | 33149 ft | 522 kts | 182° |
| 2026-05-07 18:19 | 33.11900 | 30.94929 | 33146 ft | 522 kts | 182° |
| 2026-05-07 18:20 | 33.04631 | 30.95526 | 33153 ft | 524 kts | 178° |
| 2026-05-07 18:20 | 32.97371 | 30.96375 | 33153 ft | 524 kts | 177° |
| 2026-05-07 18:21 | 32.90117 | 30.97218 | 33138 ft | 524 kts | 177° |
| 2026-05-07 18:21 | 32.82865 | 30.98035 | 33131 ft | 523 kts | 177° |
| 2026-05-07 18:22 | 32.75622 | 30.98838 | 33141 ft | 523 kts | 177° |
| 2026-05-07 18:22 | 32.68380 | 30.99640 | 33143 ft | 523 kts | 177° |
| 2026-05-07 18:23 | 32.61137 | 31.00442 | 33132 ft | 523 kts | 177° |
| 2026-05-07 18:23 | 32.53891 | 31.01245 | 33144 ft | 523 kts | 177° |
| 2026-05-07 18:24 | 32.46638 | 31.02046 | 33145 ft | 524 kts | 177° |
| 2026-05-07 18:24 | 32.39378 | 31.02847 | 33138 ft | 524 kts | 177° |
| 2026-05-07 18:25 | 32.32161 | 31.03643 | 33131 ft | 524 kts | 177° |
| 2026-05-07 18:25 | 32.24891 | 31.04442 | 33142 ft | 525 kts | 177° |
| 2026-05-07 18:26 | 32.17619 | 31.05241 | 33138 ft | 525 kts | 177° |
| 2026-05-07 18:26 | 32.10345 | 31.06039 | 33134 ft | 525 kts | 177° |
| 2026-05-07 18:27 | 32.03068 | 31.06836 | 33137 ft | 525 kts | 177° |
| 2026-05-07 18:27 | 31.95787 | 31.07632 | 33136 ft | 526 kts | 177° |
| 2026-05-07 18:28 | 31.88502 | 31.08427 | 33136 ft | 526 kts | 177° |
| 2026-05-07 18:28 | 31.81214 | 31.09222 | 33136 ft | 526 kts | 177° |
| 2026-05-07 18:29 | 31.73928 | 31.10016 | 33128 ft | 526 kts | 177° |
| 2026-05-07 18:29 | 31.66641 | 31.10809 | 33127 ft | 526 kts | 177° |
| 2026-05-07 18:30 | 31.59354 | 31.11600 | 33134 ft | 526 kts | 177° |
| 2026-05-07 18:30 | 31.52065 | 31.12423 | 33114 ft | 527 kts | 174° |
| 2026-05-07 18:31 | 31.44813 | 31.13741 | 33134 ft | 527 kts | 173° |
| 2026-05-07 18:31 | 31.37568 | 31.15121 | 33119 ft | 528 kts | 173° |
| 2026-05-07 18:32 | 31.30310 | 31.16462 | 33126 ft | 528 kts | 173° |
| 2026-05-07 18:32 | 31.23094 | 31.17784 | 33118 ft | 529 kts | 173° |
| 2026-05-07 18:33 | 31.15827 | 31.19133 | 33118 ft | 529 kts | 173° |
| 2026-05-07 18:33 | 31.08557 | 31.20492 | 33113 ft | 529 kts | 173° |
| 2026-05-07 18:34 | 31.01282 | 31.21849 | 33116 ft | 530 kts | 173° |
| 2026-05-07 18:34 | 30.94003 | 31.23201 | 33110 ft | 530 kts | 173° |
| 2026-05-07 18:35 | 30.86718 | 31.24551 | 33109 ft | 530 kts | 172° |
| 2026-05-07 18:35 | 30.79446 | 31.25898 | 33103 ft | 528 kts | 172° |
| 2026-05-07 18:36 | 30.72214 | 31.27236 | 33095 ft | 525 kts | 172° |
| 2026-05-07 18:36 | 30.65008 | 31.28565 | 33097 ft | 523 kts | 172° |
| 2026-05-07 18:37 | 30.57823 | 31.29889 | 33095 ft | 522 kts | 172° |
| 2026-05-07 18:37 | 30.50647 | 31.31210 | 33097 ft | 522 kts | 172° |
| 2026-05-07 18:38 | 30.43465 | 31.32529 | 33089 ft | 523 kts | 172° |
| 2026-05-07 18:38 | 30.36267 | 31.33850 | 33078 ft | 525 kts | 172° |
| 2026-05-07 18:39 | 30.29039 | 31.35174 | 33093 ft | 527 kts | 172° |
| 2026-05-07 18:39 | 30.21779 | 31.36502 | 33108 ft | 529 kts | 172° |
| 2026-05-07 18:40 | 30.14485 | 31.37835 | 33108 ft | 531 kts | 172° |
| 2026-05-07 18:40 | 30.07251 | 31.39344 | 33103 ft | 533 kts | 166° |
| 2026-05-07 18:41 | 30.00127 | 31.41740 | 33108 ft | 533 kts | 164° |
| 2026-05-07 18:41 | 29.93014 | 31.44174 | 33090 ft | 533 kts | 164° |
| 2026-05-07 18:42 | 29.85896 | 31.46547 | 33070 ft | 532 kts | 165° |
| 2026-05-07 18:42 | 29.78781 | 31.48896 | 33073 ft | 532 kts | 165° |
| 2026-05-07 18:43 | 29.71661 | 31.51250 | 33071 ft | 533 kts | 165° |
| 2026-05-07 18:43 | 29.64539 | 31.53598 | 33080 ft | 532 kts | 165° |
| 2026-05-07 18:44 | 29.57434 | 31.55930 | 33044 ft | 530 kts | 164° |
| 2026-05-07 18:44 | 29.50341 | 31.58256 | 33053 ft | 529 kts | 164° |
| 2026-05-07 18:45 | 29.43269 | 31.60573 | 33061 ft | 528 kts | 164° |
| 2026-05-07 18:45 | 29.36203 | 31.62885 | 33061 ft | 528 kts | 165° |
| 2026-05-07 18:46 | 29.29133 | 31.65195 | 33057 ft | 528 kts | 165° |
| 2026-05-07 18:46 | 29.22063 | 31.67502 | 33054 ft | 528 kts | 165° |
| 2026-05-07 18:47 | 29.14995 | 31.69804 | 33049 ft | 528 kts | 165° |
| 2026-05-07 18:47 | 29.09116 | 31.71717 | 33049 ft | 529 kts | 165° |
| 2026-05-07 18:48 | 29.02034 | 31.74019 | 33039 ft | 529 kts | 165° |
| 2026-05-07 18:48 | 28.94941 | 31.76312 | 33047 ft | 530 kts | 165° |
| 2026-05-07 18:49 | 28.87825 | 31.78572 | 33047 ft | 531 kts | 165° |
| 2026-05-07 18:49 | 28.80692 | 31.80828 | 33054 ft | 532 kts | 165° |
| 2026-05-07 18:50 | 28.73556 | 31.83087 | 33038 ft | 532 kts | 165° |
| 2026-05-07 18:50 | 28.66426 | 31.85345 | 33038 ft | 532 kts | 165° |
| 2026-05-07 18:51 | 28.59340 | 31.87587 | 33048 ft | 532 kts | 165° |
| 2026-05-07 18:51 | 28.52162 | 31.89853 | 33045 ft | 532 kts | 165° |
| 2026-05-07 18:52 | 28.45077 | 31.92087 | 33039 ft | 532 kts | 165° |
| 2026-05-07 18:52 | 28.37938 | 31.94335 | 33043 ft | 533 kts | 165° |
| 2026-05-07 18:53 | 28.30789 | 31.96583 | 33043 ft | 533 kts | 165° |
| 2026-05-07 18:53 | 28.23632 | 31.98831 | 33030 ft | 534 kts | 165° |
| 2026-05-07 18:54 | 28.16462 | 32.01079 | 33058 ft | 535 kts | 165° |
| 2026-05-07 18:54 | 28.09277 | 32.03330 | 33038 ft | 536 kts | 165° |
| 2026-05-07 18:55 | 28.02082 | 32.05581 | 33036 ft | 537 kts | 165° |
| 2026-05-07 18:55 | 27.94883 | 32.07873 | 33042 ft | 537 kts | 165° |
| 2026-05-07 18:56 | 27.87694 | 32.10180 | 33013 ft | 537 kts | 165° |
| 2026-05-07 18:56 | 27.80516 | 32.12475 | 33007 ft | 536 kts | 165° |
| 2026-05-07 18:57 | 27.73352 | 32.14758 | 32994 ft | 535 kts | 165° |
| 2026-05-07 18:57 | 27.66196 | 32.17033 | 32975 ft | 534 kts | 165° |
| 2026-05-07 18:58 | 27.59035 | 32.19307 | 32965 ft | 535 kts | 165° |
| 2026-05-07 18:58 | 27.51850 | 32.21586 | 32956 ft | 537 kts | 165° |
| 2026-05-07 18:59 | 27.44659 | 32.23864 | 32939 ft | 538 kts | 165° |
| 2026-05-07 18:59 | 27.37452 | 32.26145 | 32932 ft | 539 kts | 165° |
| 2026-05-07 19:00 | 27.30226 | 32.28428 | 32937 ft | 540 kts | 165° |
| 2026-05-07 19:00 | 27.23030 | 32.30700 | 32927 ft | 541 kts | 165° |
| 2026-05-07 19:01 | 27.15775 | 32.32992 | 32927 ft | 542 kts | 165° |
| 2026-05-07 19:01 | 27.08513 | 32.35284 | 32928 ft | 542 kts | 165° |
| 2026-05-07 19:02 | 27.01264 | 32.37568 | 32915 ft | 541 kts | 165° |
| 2026-05-07 19:02 | 26.94026 | 32.39845 | 32905 ft | 539 kts | 165° |
| 2026-05-07 19:03 | 26.86807 | 32.42113 | 32900 ft | 538 kts | 165° |
| 2026-05-07 19:03 | 26.79602 | 32.44374 | 32890 ft | 538 kts | 165° |
| 2026-05-07 19:04 | 26.72398 | 32.46631 | 32905 ft | 538 kts | 165° |
| 2026-05-07 19:04 | 26.65186 | 32.48888 | 32901 ft | 539 kts | 165° |
| 2026-05-07 19:05 | 26.57964 | 32.51145 | 32891 ft | 539 kts | 165° |
| 2026-05-07 19:05 | 26.50732 | 32.53403 | 32897 ft | 540 kts | 165° |
| 2026-05-07 19:06 | 26.43494 | 32.55659 | 32894 ft | 540 kts | 165° |
| 2026-05-07 19:06 | 26.32626 | 32.59042 | 32884 ft | 541 kts | 165° |
| 2026-05-07 19:07 | 26.25384 | 32.61292 | 32890 ft | 540 kts | 166° |
| 2026-05-07 19:07 | 26.18190 | 32.63523 | 32901 ft | 540 kts | 166° |
| 2026-05-07 19:08 | 26.10960 | 32.65765 | 32894 ft | 539 kts | 166° |
| 2026-05-07 19:08 | 26.03746 | 32.67999 | 32898 ft | 538 kts | 166° |
| 2026-05-07 19:09 | 25.96546 | 32.70223 | 32918 ft | 537 kts | 166° |
| 2026-05-07 19:09 | 25.89335 | 32.72451 | 32911 ft | 537 kts | 166° |
| 2026-05-07 19:10 | 25.82131 | 32.74673 | 32913 ft | 538 kts | 166° |
| 2026-05-07 19:10 | 25.75062 | 32.77400 | 32910 ft | 540 kts | 156° |
| 2026-05-07 19:11 | 25.68501 | 32.81441 | 32912 ft | 540 kts | 145° |
| 2026-05-07 19:11 | 25.62267 | 32.86127 | 32915 ft | 543 kts | 145° |
| 2026-05-07 19:12 | 25.55997 | 32.90802 | 32938 ft | 543 kts | 146° |
| 2026-05-07 19:12 | 25.49705 | 32.95427 | 32909 ft | 542 kts | 147° |
| 2026-05-07 19:13 | 25.43475 | 32.99985 | 32907 ft | 539 kts | 147° |
| 2026-05-07 19:13 | 25.37236 | 33.04550 | 32914 ft | 537 kts | 147° |
| 2026-05-07 19:14 | 25.31009 | 33.09103 | 32913 ft | 536 kts | 147° |
| 2026-05-07 19:14 | 25.24788 | 33.13648 | 32919 ft | 536 kts | 147° |
| 2026-05-07 19:15 | 25.18565 | 33.18187 | 32926 ft | 536 kts | 147° |
| 2026-05-07 19:15 | 25.12346 | 33.22723 | 32918 ft | 536 kts | 147° |
| 2026-05-07 19:16 | 25.06126 | 33.27257 | 32904 ft | 535 kts | 148° |
| 2026-05-07 19:16 | 24.99915 | 33.31778 | 32916 ft | 535 kts | 148° |
| 2026-05-07 19:17 | 24.93700 | 33.36297 | 32916 ft | 536 kts | 148° |
| 2026-05-07 19:17 | 24.87474 | 33.40817 | 32913 ft | 536 kts | 148° |
| 2026-05-07 19:18 | 24.81244 | 33.45335 | 32919 ft | 536 kts | 148° |
| 2026-05-07 19:18 | 24.75013 | 33.49848 | 32906 ft | 536 kts | 148° |
| 2026-05-07 19:19 | 24.68778 | 33.54359 | 32915 ft | 536 kts | 148° |
| 2026-05-07 19:19 | 24.62540 | 33.58867 | 32916 ft | 537 kts | 148° |
| 2026-05-07 19:20 | 24.56343 | 33.63339 | 32919 ft | 537 kts | 148° |
| 2026-05-07 19:20 | 24.50102 | 33.67838 | 32916 ft | 537 kts | 148° |
| 2026-05-07 19:21 | 24.43863 | 33.72330 | 32897 ft | 536 kts | 149° |
| 2026-05-07 19:21 | 24.37637 | 33.76808 | 32911 ft | 534 kts | 149° |
| 2026-05-07 19:22 | 24.31424 | 33.81270 | 32907 ft | 533 kts | 149° |
| 2026-05-07 19:22 | 24.25223 | 33.85718 | 32916 ft | 532 kts | 149° |
| 2026-05-07 19:23 | 24.19024 | 33.90160 | 32918 ft | 532 kts | 149° |
| 2026-05-07 19:23 | 24.12823 | 33.94598 | 32883 ft | 532 kts | 150° |
| 2026-05-07 19:24 | 24.06631 | 33.99025 | 32909 ft | 531 kts | 151° |
| 2026-05-07 19:24 | 24.00441 | 34.03445 | 32912 ft | 531 kts | 151° |
| 2026-05-07 19:25 | 23.94249 | 34.07862 | 32916 ft | 531 kts | 151° |
| 2026-05-07 19:25 | 23.88059 | 34.12273 | 32932 ft | 531 kts | 151° |
| 2026-05-07 19:26 | 23.81866 | 34.16680 | 32917 ft | 531 kts | 151° |
| 2026-05-07 19:26 | 23.75676 | 34.21100 | 32915 ft | 531 kts | 151° |
| 2026-05-07 19:27 | 23.69511 | 34.25521 | 32924 ft | 529 kts | 151° |
| 2026-05-07 19:27 | 23.63364 | 34.29922 | 32916 ft | 528 kts | 151° |
| 2026-05-07 19:28 | 23.57228 | 34.34307 | 32929 ft | 527 kts | 151° |
| 2026-05-07 19:28 | 23.51100 | 34.38680 | 32918 ft | 526 kts | 152° |
| 2026-05-07 19:29 | 23.44982 | 34.43040 | 32926 ft | 525 kts | 152° |
| 2026-05-07 19:29 | 23.38904 | 34.47367 | 32926 ft | 525 kts | 152° |
| 2026-05-07 19:30 | 23.32792 | 34.51715 | 32924 ft | 524 kts | 152° |
| 2026-05-07 19:30 | 23.26695 | 34.56046 | 32931 ft | 523 kts | 152° |
| 2026-05-07 19:31 | 23.20611 | 34.60363 | 32934 ft | 522 kts | 152° |
| 2026-05-07 19:31 | 23.14538 | 34.64667 | 32913 ft | 521 kts | 153° |
| 2026-05-07 19:32 | 23.08471 | 34.68963 | 32936 ft | 520 kts | 153° |
| 2026-05-07 19:32 | 23.02406 | 34.73253 | 32943 ft | 520 kts | 153° |
| 2026-05-07 19:33 | 22.96343 | 34.77536 | 32946 ft | 520 kts | 153° |
| 2026-05-07 19:33 | 22.90277 | 34.81818 | 32941 ft | 520 kts | 153° |
| 2026-05-07 19:34 | 22.84212 | 34.86093 | 32948 ft | 520 kts | 153° |
| 2026-05-07 19:34 | 22.78164 | 34.90353 | 32941 ft | 518 kts | 153° |
| 2026-05-07 19:35 | 22.72129 | 34.94599 | 32954 ft | 517 kts | 153° |
| 2026-05-07 19:35 | 22.66100 | 34.98836 | 32955 ft | 516 kts | 153° |
| 2026-05-07 19:36 | 22.60086 | 35.03057 | 32949 ft | 515 kts | 153° |
| 2026-05-07 19:36 | 22.54084 | 35.07267 | 32950 ft | 513 kts | 154° |
| 2026-05-07 19:37 | 22.48109 | 35.11452 | 32946 ft | 510 kts | 153° |
| 2026-05-07 19:37 | 22.42203 | 35.15586 | 32958 ft | 508 kts | 153° |
| 2026-05-07 19:38 | 22.36273 | 35.19731 | 32953 ft | 507 kts | 153° |
| 2026-05-07 19:38 | 22.30359 | 35.23861 | 32960 ft | 506 kts | 153° |
| 2026-05-07 19:39 | 22.24453 | 35.27981 | 32964 ft | 505 kts | 153° |
| 2026-05-07 19:39 | 22.19511 | 35.31425 | 32942 ft | 505 kts | 153° |
| 2026-05-07 19:40 | 22.13657 | 35.35502 | 32960 ft | 503 kts | 153° |
| 2026-05-07 19:40 | 22.07779 | 35.39592 | 32960 ft | 502 kts | 153° |
| 2026-05-07 19:41 | 22.01912 | 35.43671 | 32964 ft | 502 kts | 153° |
| 2026-05-07 19:41 | 21.96050 | 35.47758 | 32958 ft | 502 kts | 153° |
| 2026-05-07 19:42 | 21.90198 | 35.51880 | 32951 ft | 502 kts | 152° |
| 2026-05-07 19:42 | 21.84352 | 35.55997 | 32934 ft | 501 kts | 152° |
| 2026-05-07 19:43 | 21.78515 | 35.60099 | 32939 ft | 501 kts | 152° |
| 2026-05-07 19:43 | 21.72677 | 35.64194 | 32940 ft | 501 kts | 152° |
| 2026-05-07 19:44 | 21.66838 | 35.68286 | 32942 ft | 501 kts | 152° |
| 2026-05-07 19:44 | 21.60994 | 35.72377 | 32936 ft | 502 kts | 152° |
| 2026-05-07 19:45 | 21.55142 | 35.76469 | 32946 ft | 502 kts | 153° |
| 2026-05-07 19:45 | 21.49302 | 35.80550 | 32923 ft | 500 kts | 153° |
| 2026-05-07 19:46 | 21.43478 | 35.84617 | 32926 ft | 499 kts | 153° |
| 2026-05-07 19:46 | 21.37663 | 35.88673 | 32924 ft | 498 kts | 153° |
| 2026-05-07 19:47 | 21.31856 | 35.92718 | 32915 ft | 498 kts | 153° |
| 2026-05-07 19:47 | 21.26054 | 35.96756 | 32921 ft | 497 kts | 153° |
| 2026-05-07 19:48 | 21.20253 | 36.00790 | 32904 ft | 497 kts | 153° |
| 2026-05-07 19:48 | 21.14461 | 36.04814 | 32919 ft | 496 kts | 153° |
| 2026-05-07 19:49 | 21.08675 | 36.08830 | 32910 ft | 496 kts | 153° |
| 2026-05-07 19:49 | 21.02888 | 36.12843 | 32907 ft | 495 kts | 153° |
| 2026-05-07 19:50 | 20.97109 | 36.16847 | 32911 ft | 495 kts | 153° |
| 2026-05-07 19:50 | 20.91375 | 36.20816 | 32906 ft | 494 kts | 153° |
| 2026-05-07 19:51 | 20.85597 | 36.24813 | 32902 ft | 495 kts | 153° |
| 2026-05-07 19:51 | 20.79822 | 36.28803 | 32908 ft | 494 kts | 153° |
| 2026-05-07 19:52 | 20.73804 | 36.32115 | 32900 ft | 479 kts | 169° |
| 2026-05-07 19:52 | 20.67346 | 36.33253 | 32901 ft | 464 kts | 185° |
| 2026-05-07 19:53 | 20.60897 | 36.33190 | 32910 ft | 464 kts | 186° |
| 2026-05-07 19:53 | 20.54438 | 36.33138 | 32901 ft | 464 kts | 185° |
| 2026-05-07 19:54 | 20.47991 | 36.33126 | 32902 ft | 463 kts | 185° |
| 2026-05-07 19:54 | 20.41551 | 36.33131 | 32890 ft | 462 kts | 185° |
| 2026-05-07 19:55 | 20.35122 | 36.33140 | 32895 ft | 462 kts | 185° |
| 2026-05-07 19:55 | 20.28704 | 36.33149 | 32894 ft | 461 kts | 185° |
| 2026-05-07 19:56 | 20.22355 | 36.33158 | 32897 ft | 460 kts | 185° |
| 2026-05-07 19:56 | 20.15954 | 36.33165 | 32898 ft | 460 kts | 185° |
| 2026-05-07 19:57 | 20.09548 | 36.33171 | 32888 ft | 460 kts | 185° |
| 2026-05-07 19:57 | 20.03186 | 36.33178 | 32889 ft | 460 kts | 185° |
| 2026-05-07 19:58 | 19.96746 | 36.33187 | 32900 ft | 460 kts | 185° |
| 2026-05-07 19:58 | 19.90391 | 36.33194 | 32901 ft | 460 kts | 185° |
| 2026-05-07 19:59 | 19.83992 | 36.33201 | 32903 ft | 460 kts | 185° |
| 2026-05-07 19:59 | 19.77591 | 36.33209 | 32887 ft | 460 kts | 185° |
| 2026-05-07 20:00 | 19.71206 | 36.33216 | 32903 ft | 458 kts | 185° |
| 2026-05-07 20:00 | 19.64832 | 36.33223 | 32909 ft | 458 kts | 185° |
| 2026-05-07 20:01 | 19.58469 | 36.33231 | 32908 ft | 457 kts | 185° |
| 2026-05-07 20:01 | 19.52104 | 36.33238 | 32909 ft | 457 kts | 185° |
| 2026-05-07 20:02 | 19.45756 | 36.33246 | 32908 ft | 456 kts | 185° |
| 2026-05-07 20:02 | 19.39416 | 36.33253 | 32896 ft | 455 kts | 185° |
| 2026-05-07 20:03 | 19.33081 | 36.33260 | 32910 ft | 455 kts | 185° |
| 2026-05-07 20:03 | 19.26749 | 36.33267 | 32906 ft | 455 kts | 185° |
| 2026-05-07 20:04 | 19.20415 | 36.33274 | 32899 ft | 455 kts | 185° |
| 2026-05-07 20:04 | 19.14087 | 36.33282 | 32911 ft | 455 kts | 185° |
| 2026-05-07 20:05 | 19.07755 | 36.33289 | 32903 ft | 455 kts | 185° |
| 2026-05-07 20:05 | 19.01415 | 36.33296 | 32898 ft | 456 kts | 185° |
| 2026-05-07 20:06 | 18.95070 | 36.33302 | 32889 ft | 456 kts | 185° |
| 2026-05-07 20:06 | 18.88721 | 36.33310 | 32898 ft | 457 kts | 185° |
| 2026-05-07 20:07 | 18.82359 | 36.33317 | 32896 ft | 458 kts | 185° |
| 2026-05-07 20:07 | 18.75985 | 36.33325 | 32893 ft | 458 kts | 185° |
| 2026-05-07 20:08 | 18.69609 | 36.33332 | 32878 ft | 458 kts | 185° |
| 2026-05-07 20:08 | 18.63233 | 36.33339 | 32871 ft | 458 kts | 185° |
| 2026-05-07 20:09 | 18.56856 | 36.33346 | 32872 ft | 459 kts | 185° |
| 2026-05-07 20:10 | 18.47318 | 36.33357 | 32863 ft | 459 kts | 185° |
| 2026-05-07 20:10 | 18.40931 | 36.33365 | 32858 ft | 459 kts | 184° |
| 2026-05-07 20:11 | 18.34507 | 36.33372 | 32864 ft | 459 kts | 184° |
| 2026-05-07 20:11 | 18.28120 | 36.33379 | 32864 ft | 459 kts | 184° |
| 2026-05-07 20:12 | 18.21775 | 36.33386 | 32859 ft | 459 kts | 184° |
| 2026-05-07 20:12 | 18.15384 | 36.33394 | 32866 ft | 459 kts | 184° |
| 2026-05-07 20:13 | 18.08991 | 36.33401 | 32860 ft | 459 kts | 184° |
| 2026-05-07 20:13 | 18.02599 | 36.33408 | 32856 ft | 459 kts | 184° |
| 2026-05-07 20:14 | 17.96207 | 36.33415 | 32862 ft | 460 kts | 184° |
| 2026-05-07 20:14 | 17.89808 | 36.33422 | 32857 ft | 460 kts | 184° |
| 2026-05-07 20:15 | 17.83414 | 36.33429 | 32839 ft | 460 kts | 184° |
| 2026-05-07 20:15 | 17.77014 | 36.33437 | 32856 ft | 460 kts | 184° |
| 2026-05-07 20:16 | 17.70614 | 36.33444 | 32855 ft | 460 kts | 184° |
| 2026-05-07 20:16 | 17.64204 | 36.33450 | 32858 ft | 461 kts | 184° |
| 2026-05-07 20:17 | 17.57786 | 36.33458 | 32854 ft | 461 kts | 184° |
| 2026-05-07 20:17 | 17.51372 | 36.33466 | 32852 ft | 461 kts | 184° |
| 2026-05-07 20:18 | 17.44952 | 36.33473 | 32840 ft | 461 kts | 184° |
| 2026-05-07 20:18 | 17.38539 | 36.33480 | 32843 ft | 461 kts | 184° |
| 2026-05-07 20:19 | 17.32125 | 36.33487 | 32848 ft | 461 kts | 184° |
| 2026-05-07 20:19 | 17.25706 | 36.33494 | 32830 ft | 461 kts | 184° |
| 2026-05-07 20:20 | 17.19295 | 36.33501 | 32841 ft | 461 kts | 184° |
| 2026-05-07 20:20 | 17.12871 | 36.33508 | 32843 ft | 462 kts | 184° |
| 2026-05-07 20:21 | 17.06443 | 36.33516 | 32841 ft | 462 kts | 184° |
| 2026-05-07 20:21 | 17.00052 | 36.33523 | 32826 ft | 463 kts | 184° |
| 2026-05-07 20:22 | 16.93611 | 36.33530 | 32841 ft | 463 kts | 184° |
| 2026-05-07 20:22 | 16.87165 | 36.33537 | 32838 ft | 463 kts | 184° |
| 2026-05-07 20:23 | 16.80718 | 36.33545 | 32834 ft | 463 kts | 184° |
| 2026-05-07 20:23 | 16.74270 | 36.33552 | 32833 ft | 463 kts | 184° |
| 2026-05-07 20:24 | 16.67827 | 36.33559 | 32829 ft | 463 kts | 184° |
| 2026-05-07 20:24 | 16.61391 | 36.33566 | 32827 ft | 463 kts | 184° |
| 2026-05-07 20:25 | 16.54953 | 36.33574 | 32827 ft | 463 kts | 184° |
| 2026-05-07 20:25 | 16.48515 | 36.33581 | 32826 ft | 463 kts | 184° |
| 2026-05-07 20:26 | 16.42078 | 36.33588 | 32813 ft | 463 kts | 184° |
| 2026-05-07 20:26 | 16.35638 | 36.33595 | 32822 ft | 463 kts | 184° |
| 2026-05-07 20:27 | 16.29198 | 36.33602 | 32822 ft | 463 kts | 184° |
| 2026-05-07 20:27 | 16.23834 | 36.33608 | 32817 ft | 464 kts | 184° |
| 2026-05-07 20:28 | 16.16335 | 36.33616 | 32805 ft | 464 kts | 184° |
| 2026-05-07 20:28 | 16.09867 | 36.33623 | 32826 ft | 465 kts | 184° |
| 2026-05-07 20:29 | 16.03390 | 36.33631 | 32815 ft | 466 kts | 184° |
| 2026-05-07 20:29 | 15.97952 | 36.33637 | 32818 ft | 466 kts | 184° |
| 2026-05-07 20:30 | 15.91457 | 36.33644 | 32828 ft | 467 kts | 184° |
| 2026-05-07 20:30 | 15.84958 | 36.33651 | 32822 ft | 468 kts | 184° |
| 2026-05-07 20:31 | 15.78488 | 36.33658 | 32820 ft | 469 kts | 184° |
| 2026-05-07 20:31 | 15.71959 | 36.33665 | 32818 ft | 470 kts | 184° |
| 2026-05-07 20:32 | 15.65417 | 36.33672 | 32813 ft | 470 kts | 184° |
| 2026-05-07 20:32 | 15.58873 | 36.33680 | 32795 ft | 471 kts | 184° |
| 2026-05-07 20:33 | 15.52321 | 36.33687 | 32814 ft | 471 kts | 184° |
| 2026-05-07 20:33 | 15.45756 | 36.33694 | 32810 ft | 472 kts | 184° |
| 2026-05-07 20:34 | 15.39187 | 36.33637 | 32818 ft | 471 kts | 186° |
| 2026-05-07 20:34 | 15.32648 | 36.33241 | 32821 ft | 471 kts | 187° |
| 2026-05-07 20:35 | 15.26102 | 36.32802 | 32819 ft | 471 kts | 187° |
| 2026-05-07 20:35 | 15.19553 | 36.32377 | 32821 ft | 472 kts | 187° |
| 2026-05-07 20:36 | 15.12993 | 36.31965 | 32823 ft | 473 kts | 187° |
| 2026-05-07 20:36 | 15.06425 | 36.31558 | 32827 ft | 473 kts | 187° |
| 2026-05-07 20:37 | 14.99860 | 36.31151 | 32826 ft | 473 kts | 187° |
| 2026-05-07 20:37 | 14.93293 | 36.30743 | 32832 ft | 473 kts | 187° |
| 2026-05-07 20:38 | 14.86730 | 36.30336 | 32828 ft | 473 kts | 187° |
| 2026-05-07 20:38 | 14.80165 | 36.29928 | 32840 ft | 473 kts | 187° |
| 2026-05-07 20:39 | 14.73603 | 36.29521 | 32841 ft | 472 kts | 187° |
| 2026-05-07 20:39 | 14.67036 | 36.29114 | 32837 ft | 472 kts | 187° |
| 2026-05-07 20:40 | 14.60522 | 36.28711 | 32837 ft | 472 kts | 187° |
| 2026-05-07 20:40 | 14.53921 | 36.28302 | 32841 ft | 472 kts | 187° |
| 2026-05-07 20:41 | 14.47409 | 36.27899 | 32842 ft | 472 kts | 187° |
| 2026-05-07 20:41 | 14.40857 | 36.27494 | 32845 ft | 472 kts | 187° |
| 2026-05-07 20:42 | 14.34300 | 36.27089 | 32846 ft | 472 kts | 187° |
| 2026-05-07 20:42 | 14.27743 | 36.26684 | 32851 ft | 472 kts | 187° |
| 2026-05-07 20:43 | 14.21178 | 36.26278 | 32855 ft | 473 kts | 187° |
| 2026-05-07 20:43 | 14.14612 | 36.25873 | 32840 ft | 473 kts | 186° |
| 2026-05-07 20:44 | 14.08037 | 36.25468 | 32859 ft | 474 kts | 186° |
| 2026-05-07 20:44 | 14.01449 | 36.25062 | 32859 ft | 475 kts | 186° |
| 2026-05-07 20:45 | 13.94851 | 36.24656 | 32861 ft | 475 kts | 186° |
| 2026-05-07 20:45 | 13.88247 | 36.24249 | 32848 ft | 475 kts | 186° |
| 2026-05-07 20:46 | 13.81647 | 36.23843 | 32858 ft | 475 kts | 186° |
| 2026-05-07 20:46 | 13.75048 | 36.23438 | 32868 ft | 475 kts | 186° |
| 2026-05-07 20:47 | 13.68437 | 36.23362 | 32865 ft | 479 kts | 175° |
| 2026-05-07 20:47 | 13.61949 | 36.25089 | 32867 ft | 486 kts | 160° |
| 2026-05-07 20:48 | 13.55878 | 36.28218 | 32863 ft | 489 kts | 155° |
| 2026-05-07 20:48 | 13.49854 | 36.31469 | 32884 ft | 489 kts | 156° |
| 2026-05-07 20:49 | 13.43801 | 36.34679 | 32882 ft | 489 kts | 156° |
| 2026-05-07 20:49 | 13.37739 | 36.37853 | 32891 ft | 489 kts | 156° |
| 2026-05-07 20:50 | 13.31668 | 36.41021 | 32890 ft | 489 kts | 156° |
| 2026-05-07 20:50 | 13.25599 | 36.44189 | 32890 ft | 489 kts | 156° |
| 2026-05-07 20:51 | 13.19529 | 36.47357 | 32907 ft | 490 kts | 156° |
| 2026-05-07 20:51 | 13.13456 | 36.50526 | 32911 ft | 490 kts | 156° |
| 2026-05-07 20:52 | 13.07413 | 36.53678 | 32920 ft | 491 kts | 156° |
| 2026-05-07 20:52 | 13.01316 | 36.56856 | 32932 ft | 492 kts | 156° |
| 2026-05-07 20:53 | 12.95211 | 36.60037 | 32915 ft | 493 kts | 155° |
| 2026-05-07 20:53 | 12.89099 | 36.63219 | 32928 ft | 493 kts | 155° |
| 2026-05-07 20:54 | 12.82979 | 36.66394 | 32941 ft | 493 kts | 155° |
| 2026-05-07 20:54 | 12.76858 | 36.69566 | 32942 ft | 493 kts | 155° |
| 2026-05-07 20:55 | 12.70739 | 36.72731 | 32945 ft | 492 kts | 156° |
| 2026-05-07 20:55 | 12.64503 | 36.75612 | 32955 ft | 491 kts | 159° |
| 2026-05-07 20:56 | 12.58211 | 36.78320 | 32956 ft | 490 kts | 159° |
| 2026-05-07 20:56 | 12.51931 | 36.81043 | 32963 ft | 490 kts | 159° |
| 2026-05-07 20:57 | 12.45671 | 36.83799 | 32971 ft | 490 kts | 159° |
| 2026-05-07 20:57 | 12.39420 | 36.86567 | 32991 ft | 489 kts | 158° |
| 2026-05-07 20:58 | 12.33170 | 36.89335 | 33001 ft | 490 kts | 159° |
| 2026-05-07 20:58 | 12.26915 | 36.92101 | 33004 ft | 490 kts | 158° |
| 2026-05-07 20:59 | 12.20659 | 36.94865 | 33015 ft | 490 kts | 158° |
| 2026-05-07 20:59 | 12.14395 | 36.97631 | 33019 ft | 490 kts | 158° |
| 2026-05-07 21:00 | 12.08136 | 37.00394 | 33022 ft | 490 kts | 158° |
| 2026-05-07 21:00 | 12.01879 | 37.03154 | 33029 ft | 490 kts | 158° |
| 2026-05-07 21:01 | 11.95662 | 37.05895 | 33032 ft | 490 kts | 158° |
| 2026-05-07 21:01 | 11.89414 | 37.08648 | 33029 ft | 489 kts | 158° |
| 2026-05-07 21:02 | 11.83162 | 37.11402 | 33029 ft | 489 kts | 158° |
| 2026-05-07 21:02 | 11.76919 | 37.14150 | 33027 ft | 489 kts | 158° |
| 2026-05-07 21:03 | 11.70678 | 37.16897 | 33041 ft | 488 kts | 158° |
| 2026-05-07 21:03 | 11.64438 | 37.19641 | 33038 ft | 488 kts | 158° |
| 2026-05-07 21:04 | 11.58198 | 37.22384 | 33044 ft | 488 kts | 158° |
| 2026-05-07 21:04 | 11.51961 | 37.25124 | 33047 ft | 488 kts | 158° |
| 2026-05-07 21:05 | 11.45721 | 37.27865 | 33060 ft | 488 kts | 158° |
| 2026-05-07 21:05 | 11.39481 | 37.30604 | 33057 ft | 488 kts | 158° |
| 2026-05-07 21:06 | 11.33230 | 37.33346 | 33077 ft | 490 kts | 158° |
| 2026-05-07 21:06 | 11.26965 | 37.36094 | 33077 ft | 491 kts | 158° |
| 2026-05-07 21:07 | 11.20680 | 37.38848 | 33092 ft | 492 kts | 158° |
| 2026-05-07 21:07 | 11.14386 | 37.41606 | 33090 ft | 493 kts | 158° |
| 2026-05-07 21:08 | 11.08080 | 37.44367 | 33114 ft | 493 kts | 158° |
| 2026-05-07 21:08 | 11.01762 | 37.47133 | 33112 ft | 494 kts | 158° |
| 2026-05-07 21:09 | 10.95433 | 37.49901 | 33128 ft | 496 kts | 158° |
| 2026-05-07 21:09 | 10.89131 | 37.52657 | 33135 ft | 497 kts | 158° |
| 2026-05-07 21:10 | 10.82771 | 37.55437 | 33129 ft | 497 kts | 158° |
| 2026-05-07 21:10 | 10.76415 | 37.58214 | 33129 ft | 497 kts | 158° |
| 2026-05-07 21:11 | 10.70064 | 37.60987 | 33133 ft | 497 kts | 158° |
| 2026-05-07 21:11 | 10.60550 | 37.65140 | 33145 ft | 496 kts | 158° |
| 2026-05-07 21:12 | 10.54217 | 37.67902 | 33143 ft | 495 kts | 158° |
| 2026-05-07 21:12 | 10.47892 | 37.70659 | 33138 ft | 495 kts | 158° |
| 2026-05-07 21:13 | 10.41573 | 37.73413 | 33153 ft | 494 kts | 158° |
| 2026-05-07 21:13 | 10.35260 | 37.76163 | 33125 ft | 493 kts | 158° |
| 2026-05-07 21:14 | 10.28959 | 37.78907 | 33126 ft | 492 kts | 158° |
| 2026-05-07 21:14 | 10.22666 | 37.81646 | 33105 ft | 492 kts | 158° |
| 2026-05-07 21:15 | 10.16373 | 37.84384 | 33113 ft | 492 kts | 158° |
| 2026-05-07 21:15 | 10.10124 | 37.87101 | 33074 ft | 481 kts | 158° |
| 2026-05-07 21:16 | 10.07059 | 37.88434 | 32662 ft | 478 kts | 158° |
| 2026-05-07 21:16 | 10.04014 | 37.89758 | 32173 ft | 474 kts | 158° |
| 2026-05-07 21:16 | 10.00996 | 37.91069 | 31687 ft | 470 kts | 158° |
| 2026-05-07 21:16 | 9.99010 | 37.91931 | 31365 ft | 467 kts | 158° |
| 2026-05-07 21:17 | 9.96034 | 37.93224 | 30893 ft | 464 kts | 157° |
| 2026-05-07 21:17 | 9.93075 | 37.94509 | 30398 ft | 461 kts | 157° |
| 2026-05-07 21:17 | 9.90139 | 37.95784 | 29872 ft | 458 kts | 157° |
| 2026-05-07 21:17 | 9.87218 | 37.97053 | 29329 ft | 455 kts | 157° |
| 2026-05-07 21:18 | 9.84327 | 37.98308 | 28843 ft | 451 kts | 157° |
| 2026-05-07 21:18 | 9.81457 | 37.99553 | 28334 ft | 447 kts | 157° |
| 2026-05-07 21:18 | 9.78612 | 38.00787 | 27870 ft | 443 kts | 157° |
| 2026-05-07 21:18 | 9.75794 | 38.02010 | 27436 ft | 439 kts | 157° |
| 2026-05-07 21:19 | 9.72997 | 38.03224 | 26972 ft | 436 kts | 157° |
| 2026-05-07 21:19 | 9.70216 | 38.04430 | 26513 ft | 433 kts | 157° |
| 2026-05-07 21:19 | 9.67458 | 38.05626 | 26060 ft | 430 kts | 157° |
| 2026-05-07 21:19 | 9.64719 | 38.06813 | 25631 ft | 427 kts | 157° |
| 2026-05-07 21:20 | 9.61991 | 38.07995 | 25172 ft | 425 kts | 157° |
| 2026-05-07 21:20 | 9.59274 | 38.09171 | 24713 ft | 424 kts | 157° |
| 2026-05-07 21:20 | 9.56569 | 38.10340 | 24291 ft | 422 kts | 157° |
| 2026-05-07 21:20 | 9.53872 | 38.11506 | 23840 ft | 421 kts | 157° |
| 2026-05-07 21:21 | 9.51186 | 38.12666 | 23378 ft | 419 kts | 156° |
| 2026-05-07 21:21 | 9.48514 | 38.13821 | 22893 ft | 416 kts | 156° |
| 2026-05-07 21:21 | 9.45860 | 38.14969 | 22423 ft | 413 kts | 156° |
| 2026-05-07 21:21 | 9.43226 | 38.16107 | 21982 ft | 410 kts | 156° |
| 2026-05-07 21:22 | 9.40607 | 38.17237 | 21541 ft | 408 kts | 156° |
| 2026-05-07 21:22 | 9.38007 | 38.18359 | 21128 ft | 405 kts | 155° |
| 2026-05-07 21:22 | 9.35427 | 38.19473 | 20732 ft | 402 kts | 155° |
| 2026-05-07 21:22 | 9.32863 | 38.20583 | 20300 ft | 400 kts | 155° |
| 2026-05-07 21:23 | 9.30310 | 38.21684 | 19866 ft | 398 kts | 155° |
| 2026-05-07 21:23 | 9.27767 | 38.22780 | 19456 ft | 397 kts | 155° |
| 2026-05-07 21:23 | 9.25264 | 38.23859 | 19026 ft | 396 kts | 155° |
| 2026-05-07 21:23 | 9.22702 | 38.24964 | 18585 ft | 395 kts | 155° |
| 2026-05-07 21:24 | 9.20175 | 38.26055 | 18110 ft | 394 kts | 155° |
| 2026-05-07 21:24 | 9.17655 | 38.27142 | 17640 ft | 393 kts | 155° |
| 2026-05-07 21:24 | 9.15147 | 38.28224 | 17214 ft | 391 kts | 155° |
| 2026-05-07 21:24 | 9.12687 | 38.29285 | 16803 ft | 389 kts | 155° |
| 2026-05-07 21:25 | 9.10199 | 38.30358 | 16359 ft | 388 kts | 155° |
| 2026-05-07 21:25 | 9.07723 | 38.31425 | 15897 ft | 387 kts | 155° |
| 2026-05-07 21:25 | 9.05242 | 38.32495 | 15439 ft | 387 kts | 155° |
| 2026-05-07 21:25 | 9.02783 | 38.33556 | 15203 ft | 380 kts | 155° |
| 2026-05-07 21:26 | 9.00373 | 38.34594 | 15043 ft | 372 kts | 155° |
| 2026-05-07 21:26 | 8.98021 | 38.35606 | 14863 ft | 364 kts | 155° |
| 2026-05-07 21:26 | 8.95720 | 38.36598 | 14714 ft | 355 kts | 155° |
| 2026-05-07 21:26 | 8.93470 | 38.37566 | 14571 ft | 347 kts | 155° |
| 2026-05-07 21:27 | 8.91409 | 38.38708 | 14404 ft | 332 kts | 137° |
| 2026-05-07 21:27 | 8.90003 | 38.40470 | 14260 ft | 315 kts | 114° |
| 2026-05-07 21:27 | 8.89321 | 38.42501 | 14088 ft | 297 kts | 97° |
| 2026-05-07 21:27 | 8.89163 | 38.44511 | 13822 ft | 280 kts | 83° |
| 2026-05-07 21:28 | 8.89439 | 38.46445 | 13413 ft | 278 kts | 79° |
| 2026-05-07 21:28 | 8.89767 | 38.48343 | 13046 ft | 268 kts | 79° |
| 2026-05-07 21:28 | 8.90086 | 38.50166 | 12641 ft | 262 kts | 79° |
| 2026-05-07 21:28 | 8.90393 | 38.51956 | 12179 ft | 252 kts | 79° |
| 2026-05-07 21:29 | 8.90687 | 38.53692 | 11898 ft | 251 kts | 79° |
| 2026-05-07 21:29 | 8.90978 | 38.55433 | 11620 ft | 250 kts | 80° |
| 2026-05-07 21:29 | 8.91261 | 38.57146 | 11344 ft | 244 kts | 80° |
| 2026-05-07 21:29 | 8.91535 | 38.58815 | 11080 ft | 236 kts | 80° |
| 2026-05-07 21:30 | 8.91798 | 38.60424 | 10802 ft | 228 kts | 80° |
| 2026-05-07 21:30 | 8.92157 | 38.61978 | 10590 ft | 232 kts | 72° |
| 2026-05-07 21:30 | 8.92680 | 38.63519 | 10273 ft | 228 kts | 71° |
| 2026-05-07 21:30 | 8.93185 | 38.65002 | 10022 ft | 220 kts | 72° |
| 2026-05-07 21:31 | 8.93663 | 38.66439 | 9856 ft | 210 kts | 72° |
| 2026-05-07 21:31 | 8.94108 | 38.67795 | 9546 ft | 195 kts | 72° |
| 2026-05-07 21:31 | 8.94507 | 38.69024 | 9393 ft | 173 kts | 73° |
| 2026-05-07 21:31 | 8.94834 | 38.70121 | 9208 ft | 152 kts | 74° |
| 2026-05-07 21:32 | 8.95096 | 38.71142 | 9133 ft | 155 kts | 77° |
| 2026-05-07 21:32 | 8.95359 | 38.72190 | 8950 ft | 152 kts | 73° |
| 2026-05-07 21:32 | 8.95680 | 38.73224 | 8703 ft | 151 kts | 72° |
| 2026-05-07 21:32 | 8.96020 | 38.74237 | 8487 ft | 158 kts | 72° |
| 2026-05-07 21:33 | 8.96340 | 38.75308 | 8359 ft | 161 kts | 75° |
| 2026-05-07 21:33 | 8.96649 | 38.76393 | 8061 ft | 160 kts | 74° |
| 2026-05-07 21:33 | 8.96966 | 38.77468 | 7823 ft | 162 kts | 75° |
| 2026-05-07 21:33 | 8.97297 | 38.78577 | 7661 ft | 166 kts | 75° |
| 2026-05-07 21:34 | 8.97602 | 38.79622 | 7629 ft | 138 kts | 73° |
| 2026-05-07 21:34 | 8.97824 | 38.80376 | 7628 ft | 85 kts | 73° |
| 2026-05-07 21:34 | 8.97948 | 38.80802 | 7623 ft | 53 kts | 73° |
| 2026-05-07 21:34 | 8.98048 | 38.81147 | 7619 ft | 48 kts | 74° |
| 2026-05-07 21:35 | 8.98121 | 38.81394 | 7619 ft | 30 kts | 73° |
| 2026-05-07 21:35 | 8.98186 | 38.81559 | 7620 ft | 20 kts | 38° |
| 2026-05-07 21:35 | 8.98292 | 38.81501 | 7636 ft | 20 kts | 302° |
| 2026-05-07 21:35 | 8.98315 | 38.81369 | 7638 ft | 20 kts | 253° |
| 2026-05-07 21:36 | 8.98274 | 38.81236 | 7636 ft | 20 kts | 253° |
| 2026-05-07 21:36 | 8.98237 | 38.81100 | 7639 ft | 21 kts | 253° |
| 2026-05-07 21:36 | 8.98192 | 38.80951 | 7635 ft | 24 kts | 253° |
| 2026-05-07 21:36 | 8.98141 | 38.80779 | 7633 ft | 27 kts | 253° |
| 2026-05-07 21:37 | 8.98084 | 38.80590 | 7633 ft | 29 kts | 253° |
| 2026-05-07 21:37 | 8.98027 | 38.80390 | 7633 ft | 30 kts | 254° |
| 2026-05-07 21:37 | 8.97978 | 38.80209 | 7633 ft | 17 kts | 264° |
| 2026-05-07 21:37 | 8.98040 | 38.80160 | 7631 ft | 12 kts | 341° |
| 2026-05-07 21:38 | 8.98118 | 38.80140 | 7630 ft | 12 kts | 347° |
| 2026-05-07 21:38 | 8.98196 | 38.80121 | 7630 ft | 12 kts | 339° |
| 2026-05-07 21:38 | 8.98258 | 38.80070 | 7629 ft | 12 kts | 306° |
| 2026-05-07 21:38 | 8.98263 | 38.79991 | 7629 ft | 12 kts | 258° |
| 2026-05-07 21:39 | 8.98239 | 38.79913 | 7629 ft | 12 kts | 251° |
| 2026-05-07 21:39 | 8.98214 | 38.79834 | 7628 ft | 12 kts | 253° |
| 2026-05-07 21:39 | 8.98187 | 38.79739 | 7628 ft | 16 kts | 253° |
| 2026-05-07 21:39 | 8.98150 | 38.79612 | 7628 ft | 21 kts | 253° |
| 2026-05-07 21:40 | 8.98103 | 38.79457 | 7627 ft | 25 kts | 255° |
| 2026-05-07 21:40 | 8.98067 | 38.79324 | 7627 ft | 11 kts | 255° |
| 2026-05-07 21:40 | 8.98028 | 38.79295 | 7627 ft | 4 kts | 173° |
| 2026-05-07 21:40 | 8.97998 | 38.79301 | 7626 ft | 0 kts | 166° |